Terminal Aerodrome Forecast
Issued by NWS Wilmington, NC

Home | Current Version | Previous Version | Text Only | Print | Product List | Glossary On
Versions: 1 2 3 4 5 6 7 8 9 10 11 12 13 14 15 16 17 18 19 20 21 22 23 24 25 26 27 28 29 30
000
FTUS42 KILM 161700
TAFFLO
TAF
KFLO 161729Z 1618/1718 01004KT P6SM BKN035
     FM162200 16005KT P6SM SCT035
     FM170800 03004KT 4SM BR BKN006
      TEMPO 1709/1712 1SM BR BKN002
     FM171400 05006KT P6SM BKN016=

USA.gov is the U.S. government's official web portal to all federal, state and local government web resources and services.